メインページ
METAR-TAF:

METAR-TAF

空港 :

ハト国際空港

キュラソー島, オランダ領アンティル

緯度: 12-12N, 経度: 068-58W, 海抜: 9m

現時点の気象観測

当レポートは50分前の07:00(UTC)に作成
の風 7kt
気温 26°C
湿度 89%
気圧 1013 hPa
視程10km以上
高度1600ftの雲はほとんどない, 塔状積雲.
近辺でにわか雨

METAR: TNCC 190700Z 09007KT 9999 VCSH FEW016TCU 26/24 Q1013 NOSIG

時間: 03:50 (07:50 UTC)

予報

当レポートは4時間40分前の03:10(UTC)に作成
予報は19日の 06時(UTC)から 20日の 06時(UTC)まで有効
の風 8kt
視程10km以上
高度1600ftの雲は散在している
19日の 06時(UTC)から 19日の 18時(UTC)まで一時的に
視程: 7000m
高度1400ftの千切れ雲あり
弱いにわか雨
確率 30% :
19日の 11時(UTC)から 19日の 15時(UTC)まで一時的に
の風 10kt、最大25ktの突風を伴う
視程: 3000m
高度1200ftの雲はほとんどない, 積乱雲.
高度1400ftの千切れ雲あり
にわか雨
19日の 13時(UTC)から 19日の 15時(UTC)まで徐々に
東/南東の風 15kt

TAF: TNCC 190310Z 1906/2006 10008KT 9999 SCT016 TEMPO 1906/1918 7000 -SHRA BKN014 PROB30 TEMPO 1911/1915 09010G25KT 3000 SHRA FEW012CB BKN014 BECMG 1913/1915 11015KT

4,000以上の空港の気象観測と天気予報(METAR報とTAF報)

利用可能な観測所は地図上に黄色い丸と赤い丸で示す。

丸の上にカーソルを重ねると観測所名を参照できる。

次にクリックすると気象観測と天気予報を参照できる。

マップの切り替え:黒色「×」印の緑ボタンをクリックして拡大、「-」印の緑ボタンをクリックして縮小、緑色の三角印をクリックして隣りの地図に切り替え


METAR-TAF: